sensor_id;sensor_type;location;lat;lon;timestamp;temperature;humidity
15937;DHT22;9163;48.818;8.976;2023-02-27T00:00:35;-3.30;99.90
15937;DHT22;9163;48.818;8.976;2023-02-27T00:03:03;-3.40;99.90
15937;DHT22;9163;48.818;8.976;2023-02-27T00:05:30;-3.40;99.90
15937;DHT22;9163;48.818;8.976;2023-02-27T00:07:57;-3.40;99.90
15937;DHT22;9163;48.818;8.976;2023-02-27T00:10:25;-3.50;99.90
15937;DHT22;9163;48.818;8.976;2023-02-27T00:12:53;-3.50;99.90
15937;DHT22;9163;48.818;8.976;2023-02-27T00:15:20;-3.50;99.90
15937;DHT22;9163;48.818;8.976;2023-02-27T00:17:48;-3.60;99.90
15937;DHT22;9163;48.818;8.976;2023-02-27T00:20:17;-3.50;99.90
15937;DHT22;9163;48.818;8.976;2023-02-27T00:22:44;-3.50;99.90
15937;DHT22;9163;48.818;8.976;2023-02-27T00:25:12;-3.50;99.90
15937;DHT22;9163;48.818;8.976;2023-02-27T00:27:40;-3.30;99.90
15937;DHT22;9163;48.818;8.976;2023-02-27T00:30:11;-3.40;99.90
15937;DHT22;9163;48.818;8.976;2023-02-27T00:32:39;-3.30;99.90
15937;DHT22;9163;48.818;8.976;2023-02-27T00:35:08;-3.30;99.90
15937;DHT22;9163;48.818;8.976;2023-02-27T00:37:36;-3.30;99.90
15937;DHT22;9163;48.818;8.976;2023-02-27T00:40:04;-3.30;99.90
15937;DHT22;9163;48.818;8.976;2023-02-27T00:42:32;-3.30;99.90
15937;DHT22;9163;48.818;8.976;2023-02-27T00:44:59;-3.30;99.90
15937;DHT22;9163;48.818;8.976;2023-02-27T00:47:28;-3.30;99.90
15937;DHT22;9163;48.818;8.976;2023-02-27T00:49:55;-3.30;99.90
15937;DHT22;9163;48.818;8.976;2023-02-27T00:52:22;-3.30;99.90
15937;DHT22;9163;48.818;8.976;2023-02-27T00:54:49;-3.30;99.90
15937;DHT22;9163;48.818;8.976;2023-02-27T00:57:16;-3.40;99.90
15937;DHT22;9163;48.818;8.976;2023-02-27T00:59:44;-3.40;99.90
15937;DHT22;9163;48.818;8.976;2023-02-27T01:02:11;-3.40;99.90
15937;DHT22;9163;48.818;8.976;2023-02-27T01:04:40;-3.40;99.90
15937;DHT22;9163;48.818;8.976;2023-02-27T01:07:08;-3.40;99.90
15937;DHT22;9163;48.818;8.976;2023-02-27T01:09:38;-3.50;99.90
15937;DHT22;9163;48.818;8.976;2023-02-27T01:12:06;-3.50;99.90
15937;DHT22;9163;48.818;8.976;2023-02-27T01:14:33;-3.40;99.90
15937;DHT22;9163;48.818;8.976;2023-02-27T01:17:00;-3.40;99.90
15937;DHT22;9163;48.818;8.976;2023-02-27T01:19:27;-3.50;99.90
15937;DHT22;9163;48.818;8.976;2023-02-27T01:21:56;-3.60;99.90
15937;DHT22;9163;48.818;8.976;2023-02-27T01:24:23;-3.50;99.90
15937;DHT22;9163;48.818;8.976;2023-02-27T01:26:51;-3.50;99.90
15937;DHT22;9163;48.818;8.976;2023-02-27T01:29:19;-3.50;99.90
15937;DHT22;9163;48.818;8.976;2023-02-27T01:31:46;-3.50;99.90
15937;DHT22;9163;48.818;8.976;2023-02-27T01:34:14;-3.60;99.90
15937;DHT22;9163;48.818;8.976;2023-02-27T01:36:41;-3.60;99.90
15937;DHT22;9163;48.818;8.976;2023-02-27T01:39:10;-3.60;99.90
15937;DHT22;9163;48.818;8.976;2023-02-27T01:41:37;-3.50;99.90
15937;DHT22;9163;48.818;8.976;2023-02-27T01:44:06;-3.40;99.90
15937;DHT22;9163;48.818;8.976;2023-02-27T01:46:34;-3.50;99.90
15937;DHT22;9163;48.818;8.976;2023-02-27T01:49:04;-3.50;99.90
15937;DHT22;9163;48.818;8.976;2023-02-27T01:51:35;-3.40;99.90
15937;DHT22;9163;48.818;8.976;2023-02-27T01:54:05;-3.40;99.90
15937;DHT22;9163;48.818;8.976;2023-02-27T01:56:34;-3.50;99.90
15937;DHT22;9163;48.818;8.976;2023-02-27T01:59:03;-3.40;99.90
15937;DHT22;9163;48.818;8.976;2023-02-27T02:01:33;-3.40;99.90
15937;DHT22;9163;48.818;8.976;2023-02-27T02:04:07;-3.50;99.90
15937;DHT22;9163;48.818;8.976;2023-02-27T02:06:38;-3.50;99.90
15937;DHT22;9163;48.818;8.976;2023-02-27T02:09:07;-3.50;99.90
15937;DHT22;9163;48.818;8.976;2023-02-27T02:11:37;-3.60;99.90
15937;DHT22;9163;48.818;8.976;2023-02-27T02:14:05;-3.70;99.90
15937;DHT22;9163;48.818;8.976;2023-02-27T02:16:56;-3.70;99.90
15937;DHT22;9163;48.818;8.976;2023-02-27T02:20:04;-3.80;99.90
15937;DHT22;9163;48.818;8.976;2023-02-27T02:23:02;-3.80;99.90
15937;DHT22;9163;48.818;8.976;2023-02-27T02:29:01;-3.70;99.90
15937;DHT22;9163;48.818;8.976;2023-02-27T02:31:48;-3.70;99.90
15937;DHT22;9163;48.818;8.976;2023-02-27T02:38:02;-3.70;99.90
15937;DHT22;9163;48.818;8.976;2023-02-27T02:40:37;-3.60;99.90
15937;DHT22;9163;48.818;8.976;2023-02-27T02:43:11;-3.60;99.90
15937;DHT22;9163;48.818;8.976;2023-02-27T02:45:46;-3.70;99.90
15937;DHT22;9163;48.818;8.976;2023-02-27T02:48:18;-3.70;99.90
15937;DHT22;9163;48.818;8.976;2023-02-27T02:50:50;-3.70;99.90
15937;DHT22;9163;48.818;8.976;2023-02-27T02:53:26;-3.80;99.90
15937;DHT22;9163;48.818;8.976;2023-02-27T02:56:02;-3.80;99.90
15937;DHT22;9163;48.818;8.976;2023-02-27T02:58:34;-3.80;99.90
15937;DHT22;9163;48.818;8.976;2023-02-27T03:01:05;-3.80;99.90
15937;DHT22;9163;48.818;8.976;2023-02-27T03:03:42;-3.80;99.90
15937;DHT22;9163;48.818;8.976;2023-02-27T03:06:13;-3.80;99.90
15937;DHT22;9163;48.818;8.976;2023-02-27T03:08:47;-3.80;99.90
15937;DHT22;9163;48.818;8.976;2023-02-27T03:11:16;-3.80;99.90
15937;DHT22;9163;48.818;8.976;2023-02-27T03:13:46;-3.80;99.90
15937;DHT22;9163;48.818;8.976;2023-02-27T03:16:20;-3.80;99.90
15937;DHT22;9163;48.818;8.976;2023-02-27T03:18:53;-3.90;99.90
15937;DHT22;9163;48.818;8.976;2023-02-27T03:21:25;-3.90;99.90
15937;DHT22;9163;48.818;8.976;2023-02-27T03:23:55;-3.90;99.90
15937;DHT22;9163;48.818;8.976;2023-02-27T03:26:31;-3.90;99.90
15937;DHT22;9163;48.818;8.976;2023-02-27T03:29:01;-3.80;99.90
15937;DHT22;9163;48.818;8.976;2023-02-27T03:31:33;-3.80;99.90
15937;DHT22;9163;48.818;8.976;2023-02-27T03:34:12;-3.70;99.90
15937;DHT22;9163;48.818;8.976;2023-02-27T03:36:45;-3.70;99.90
15937;DHT22;9163;48.818;8.976;2023-02-27T03:39:22;-3.80;99.90
15937;DHT22;9163;48.818;8.976;2023-02-27T03:41:56;-3.90;99.90
15937;DHT22;9163;48.818;8.976;2023-02-27T03:44:30;-3.90;99.90
15937;DHT22;9163;48.818;8.976;2023-02-27T03:46:58;-3.90;99.90
15937;DHT22;9163;48.818;8.976;2023-02-27T03:49:26;-3.90;99.90
15937;DHT22;9163;48.818;8.976;2023-02-27T03:51:53;-4.00;99.90
15937;DHT22;9163;48.818;8.976;2023-02-27T03:54:24;-4.10;99.90
15937;DHT22;9163;48.818;8.976;2023-02-27T03:56:57;-4.10;99.90
15937;DHT22;9163;48.818;8.976;2023-02-27T03:59:26;-4.10;99.90
15937;DHT22;9163;48.818;8.976;2023-02-27T04:01:56;-4.20;99.90
15937;DHT22;9163;48.818;8.976;2023-02-27T04:04:24;-4.30;99.90
15937;DHT22;9163;48.818;8.976;2023-02-27T04:06:55;-4.30;99.90
15937;DHT22;9163;48.818;8.976;2023-02-27T04:10:09;-4.30;99.90
15937;DHT22;9163;48.818;8.976;2023-02-27T04:15:45;-4.40;99.90
15937;DHT22;9163;48.818;8.976;2023-02-27T04:18:20;-4.40;99.90
15937;DHT22;9163;48.818;8.976;2023-02-27T04:20:52;-4.30;99.90
15937;DHT22;9163;48.818;8.976;2023-02-27T04:23:25;-4.30;99.90
15937;DHT22;9163;48.818;8.976;2023-02-27T04:26:03;-4.10;99.90
15937;DHT22;9163;48.818;8.976;2023-02-27T04:28:40;-4.10;99.90
15937;DHT22;9163;48.818;8.976;2023-02-27T04:31:14;-4.20;99.90
15937;DHT22;9163;48.818;8.976;2023-02-27T04:33:48;-4.30;99.90
15937;DHT22;9163;48.818;8.976;2023-02-27T04:36:22;-4.20;99.90
15937;DHT22;9163;48.818;8.976;2023-02-27T04:38:55;-4.30;99.90
15937;DHT22;9163;48.818;8.976;2023-02-27T04:41:29;-4.30;99.90
15937;DHT22;9163;48.818;8.976;2023-02-27T04:44:01;-4.30;99.90
15937;DHT22;9163;48.818;8.976;2023-02-27T04:46:30;-4.20;99.90
15937;DHT22;9163;48.818;8.976;2023-02-27T04:49:03;-4.20;99.90
15937;DHT22;9163;48.818;8.976;2023-02-27T04:51:33;-4.20;99.90
15937;DHT22;9163;48.818;8.976;2023-02-27T04:54:06;-4.20;99.90
15937;DHT22;9163;48.818;8.976;2023-02-27T04:56:36;-4.20;99.90
15937;DHT22;9163;48.818;8.976;2023-02-27T04:59:10;-4.30;99.90
15937;DHT22;9163;48.818;8.976;2023-02-27T05:01:42;-4.30;99.90
15937;DHT22;9163;48.818;8.976;2023-02-27T05:04:13;-4.40;99.90
15937;DHT22;9163;48.818;8.976;2023-02-27T05:06:43;-4.50;99.90
15937;DHT22;9163;48.818;8.976;2023-02-27T05:09:15;-4.50;99.90
15937;DHT22;9163;48.818;8.976;2023-02-27T05:11:49;-4.50;99.90
15937;DHT22;9163;48.818;8.976;2023-02-27T05:14:23;-4.50;99.90
15937;DHT22;9163;48.818;8.976;2023-02-27T05:16:55;-4.50;99.90
15937;DHT22;9163;48.818;8.976;2023-02-27T05:19:26;-4.60;99.90
15937;DHT22;9163;48.818;8.976;2023-02-27T05:21:57;-4.60;99.90
15937;DHT22;9163;48.818;8.976;2023-02-27T05:24:32;-4.60;99.90
15937;DHT22;9163;48.818;8.976;2023-02-27T05:27:15;-4.50;99.90
15937;DHT22;9163;48.818;8.976;2023-02-27T05:29:48;-4.60;99.90
15937;DHT22;9163;48.818;8.976;2023-02-27T05:32:25;-4.60;99.90
15937;DHT22;9163;48.818;8.976;2023-02-27T05:34:57;-4.70;99.90
15937;DHT22;9163;48.818;8.976;2023-02-27T05:37:30;-4.70;99.90
15937;DHT22;9163;48.818;8.976;2023-02-27T05:39:59;-4.70;99.90
15937;DHT22;9163;48.818;8.976;2023-02-27T05:42:34;-4.70;99.90
15937;DHT22;9163;48.818;8.976;2023-02-27T05:45:06;-4.80;99.90
15937;DHT22;9163;48.818;8.976;2023-02-27T05:47:39;-4.80;99.90
15937;DHT22;9163;48.818;8.976;2023-02-27T05:50:09;-4.80;99.90
15937;DHT22;9163;48.818;8.976;2023-02-27T05:52:39;-4.90;99.90
15937;DHT22;9163;48.818;8.976;2023-02-27T05:55:12;-4.80;99.90
15937;DHT22;9163;48.818;8.976;2023-02-27T05:57:44;-4.90;99.90
15937;DHT22;9163;48.818;8.976;2023-02-27T06:00:19;-4.90;99.90
15937;DHT22;9163;48.818;8.976;2023-02-27T06:02:47;-4.90;99.90
15937;DHT22;9163;48.818;8.976;2023-02-27T06:05:17;-4.90;99.90
15937;DHT22;9163;48.818;8.976;2023-02-27T06:07:44;-4.90;99.90
15937;DHT22;9163;48.818;8.976;2023-02-27T06:10:14;-4.90;99.90
15937;DHT22;9163;48.818;8.976;2023-02-27T06:12:42;-4.90;99.90
15937;DHT22;9163;48.818;8.976;2023-02-27T06:15:10;-5.00;99.90
15937;DHT22;9163;48.818;8.976;2023-02-27T06:17:39;-4.90;99.90
15937;DHT22;9163;48.818;8.976;2023-02-27T06:20:07;-4.90;99.90
15937;DHT22;9163;48.818;8.976;2023-02-27T06:22:35;-4.80;99.90
15937;DHT22;9163;48.818;8.976;2023-02-27T06:25:02;-4.80;99.90
15937;DHT22;9163;48.818;8.976;2023-02-27T06:27:29;-4.80;99.90
15937;DHT22;9163;48.818;8.976;2023-02-27T06:29:57;-4.80;99.90
15937;DHT22;9163;48.818;8.976;2023-02-27T06:32:24;-4.80;99.90
15937;DHT22;9163;48.818;8.976;2023-02-27T06:34:53;-4.80;99.90
15937;DHT22;9163;48.818;8.976;2023-02-27T06:37:20;-4.70;99.90
15937;DHT22;9163;48.818;8.976;2023-02-27T06:39:47;-4.70;99.90
15937;DHT22;9163;48.818;8.976;2023-02-27T06:42:15;-4.70;99.90
15937;DHT22;9163;48.818;8.976;2023-02-27T06:44:42;-4.50;99.90
15937;DHT22;9163;48.818;8.976;2023-02-27T06:47:10;-4.40;99.90
15937;DHT22;9163;48.818;8.976;2023-02-27T06:49:37;-4.30;99.90
15937;DHT22;9163;48.818;8.976;2023-02-27T06:52:05;-4.10;99.90
15937;DHT22;9163;48.818;8.976;2023-02-27T06:54:33;-3.90;99.90
15937;DHT22;9163;48.818;8.976;2023-02-27T06:57:00;-3.80;99.90
15937;DHT22;9163;48.818;8.976;2023-02-27T06:59:27;-3.60;99.90
15937;DHT22;9163;48.818;8.976;2023-02-27T07:01:55;-3.40;99.90
15937;DHT22;9163;48.818;8.976;2023-02-27T07:04:24;-3.30;99.90
15937;DHT22;9163;48.818;8.976;2023-02-27T07:06:51;-3.10;99.90
15937;DHT22;9163;48.818;8.976;2023-02-27T07:09:20;-2.90;99.90
15937;DHT22;9163;48.818;8.976;2023-02-27T07:11:48;-2.70;99.90
15937;DHT22;9163;48.818;8.976;2023-02-27T07:14:15;-2.60;99.90
15937;DHT22;9163;48.818;8.976;2023-02-27T07:16:43;-2.40;99.90
15937;DHT22;9163;48.818;8.976;2023-02-27T07:19:12;-2.10;99.90
15937;DHT22;9163;48.818;8.976;2023-02-27T07:21:39;-1.90;99.90
15937;DHT22;9163;48.818;8.976;2023-02-27T07:24:06;-1.90;99.90
15937;DHT22;9163;48.818;8.976;2023-02-27T07:26:36;-1.70;99.90
15937;DHT22;9163;48.818;8.976;2023-02-27T07:29:03;-1.60;99.90
15937;DHT22;9163;48.818;8.976;2023-02-27T07:31:31;-1.50;99.90
15937;DHT22;9163;48.818;8.976;2023-02-27T07:33:59;-1.50;99.90
15937;DHT22;9163;48.818;8.976;2023-02-27T07:36:26;-1.30;99.90
15937;DHT22;9163;48.818;8.976;2023-02-27T07:38:54;-1.10;99.90
15937;DHT22;9163;48.818;8.976;2023-02-27T07:41:22;-1.00;99.90
15937;DHT22;9163;48.818;8.976;2023-02-27T07:43:51;-0.80;99.90
15937;DHT22;9163;48.818;8.976;2023-02-27T07:46:18;-0.60;99.90
15937;DHT22;9163;48.818;8.976;2023-02-27T07:48:48;-0.60;99.90
15937;DHT22;9163;48.818;8.976;2023-02-27T07:51:15;-0.50;99.90
15937;DHT22;9163;48.818;8.976;2023-02-27T07:53:43;-0.30;99.90
15937;DHT22;9163;48.818;8.976;2023-02-27T07:56:10;-0.20;99.90
15937;DHT22;9163;48.818;8.976;2023-02-27T07:58:37;0.00;99.90
15937;DHT22;9163;48.818;8.976;2023-02-27T08:01:06;0.10;99.90
15937;DHT22;9163;48.818;8.976;2023-02-27T08:03:33;0.20;99.90
15937;DHT22;9163;48.818;8.976;2023-02-27T08:06:00;0.30;99.90
15937;DHT22;9163;48.818;8.976;2023-02-27T08:08:27;0.40;99.90
15937;DHT22;9163;48.818;8.976;2023-02-27T08:10:55;0.60;99.90
15937;DHT22;9163;48.818;8.976;2023-02-27T08:13:23;0.80;99.90
15937;DHT22;9163;48.818;8.976;2023-02-27T08:15:50;0.90;92.50
15937;DHT22;9163;48.818;8.976;2023-02-27T08:18:20;1.10;92.00
15937;DHT22;9163;48.818;8.976;2023-02-27T08:20:47;1.30;85.70
15937;DHT22;9163;48.818;8.976;2023-02-27T08:23:14;1.20;65.20
15937;DHT22;9163;48.818;8.976;2023-02-27T08:25:42;1.30;56.50
15937;DHT22;9163;48.818;8.976;2023-02-27T08:28:09;1.30;41.40
15937;DHT22;9163;48.818;8.976;2023-02-27T08:30:36;1.40;41.60
15937;DHT22;9163;48.818;8.976;2023-02-27T08:33:03;1.40;42.00
15937;DHT22;9163;48.818;8.976;2023-02-27T08:35:32;1.40;28.10
15937;DHT22;9163;48.818;8.976;2023-02-27T08:37:59;1.70;39.20
15937;DHT22;9163;48.818;8.976;2023-02-27T08:40:26;1.80;23.10
15937;DHT22;9163;48.818;8.976;2023-02-27T08:42:53;2.00;23.80
15937;DHT22;9163;48.818;8.976;2023-02-27T08:45:21;2.20;17.20
15937;DHT22;9163;48.818;8.976;2023-02-27T08:47:48;2.50;9.90
15937;DHT22;9163;48.818;8.976;2023-02-27T08:50:15;2.60;13.00
15937;DHT22;9163;48.818;8.976;2023-02-27T08:52:44;3.00;7.40
15937;DHT22;9163;48.818;8.976;2023-02-27T08:55:11;3.20;1.00
15937;DHT22;9163;48.818;8.976;2023-02-27T08:57:38;3.40;1.00
15937;DHT22;9163;48.818;8.976;2023-02-27T09:00:07;3.40;1.00
15937;DHT22;9163;48.818;8.976;2023-02-27T09:02:35;3.50;1.00
15937;DHT22;9163;48.818;8.976;2023-02-27T09:05:02;3.60;1.00
15937;DHT22;9163;48.818;8.976;2023-02-27T09:07:29;3.70;1.00
15937;DHT22;9163;48.818;8.976;2023-02-27T09:09:59;3.80;1.00
15937;DHT22;9163;48.818;8.976;2023-02-27T09:12:26;4.20;1.00
15937;DHT22;9163;48.818;8.976;2023-02-27T09:14:53;4.20;1.00
15937;DHT22;9163;48.818;8.976;2023-02-27T09:17:21;4.00;1.00
15937;DHT22;9163;48.818;8.976;2023-02-27T09:19:48;4.30;1.00
15937;DHT22;9163;48.818;8.976;2023-02-27T09:22:16;4.50;1.00
15937;DHT22;9163;48.818;8.976;2023-02-27T09:24:43;4.70;1.00
15937;DHT22;9163;48.818;8.976;2023-02-27T09:27:12;4.90;1.00
15937;DHT22;9163;48.818;8.976;2023-02-27T09:29:40;5.30;1.00
15937;DHT22;9163;48.818;8.976;2023-02-27T09:32:07;5.30;1.00
15937;DHT22;9163;48.818;8.976;2023-02-27T09:34:35;5.10;1.00
15937;DHT22;9163;48.818;8.976;2023-02-27T09:37:02;5.10;1.00
15937;DHT22;9163;48.818;8.976;2023-02-27T09:39:29;5.60;1.00
15937;DHT22;9163;48.818;8.976;2023-02-27T09:41:59;5.30;1.00
15937;DHT22;9163;48.818;8.976;2023-02-27T09:44:46;5.50;1.00
15937;DHT22;9163;48.818;8.976;2023-02-27T09:47:17;5.60;1.00
15937;DHT22;9163;48.818;8.976;2023-02-27T09:49:54;5.50;1.00
15937;DHT22;9163;48.818;8.976;2023-02-27T09:52:21;5.70;1.00
15937;DHT22;9163;48.818;8.976;2023-02-27T09:54:49;6.20;1.00
15937;DHT22;9163;48.818;8.976;2023-02-27T09:57:23;6.50;1.00
15937;DHT22;9163;48.818;8.976;2023-02-27T09:59:58;6.60;1.00
15937;DHT22;9163;48.818;8.976;2023-02-27T10:02:40;7.00;1.00
15937;DHT22;9163;48.818;8.976;2023-02-27T10:05:16;7.20;1.00
15937;DHT22;9163;48.818;8.976;2023-02-27T10:07:53;7.40;1.00
15937;DHT22;9163;48.818;8.976;2023-02-27T10:10:29;7.40;1.00
15937;DHT22;9163;48.818;8.976;2023-02-27T10:13:28;8.10;1.00
15937;DHT22;9163;48.818;8.976;2023-02-27T10:15:59;8.10;1.00
15937;DHT22;9163;48.818;8.976;2023-02-27T10:18:29;9.10;1.00
15937;DHT22;9163;48.818;8.976;2023-02-27T10:20:59;10.10;1.00
15937;DHT22;9163;48.818;8.976;2023-02-27T10:23:34;10.50;1.00
15937;DHT22;9163;48.818;8.976;2023-02-27T10:26:04;10.50;1.00
15937;DHT22;9163;48.818;8.976;2023-02-27T10:28:32;11.20;1.00
15937;DHT22;9163;48.818;8.976;2023-02-27T10:31:01;11.10;1.00
15937;DHT22;9163;48.818;8.976;2023-02-27T10:33:33;11.60;1.00
15937;DHT22;9163;48.818;8.976;2023-02-27T10:36:02;12.00;1.00
15937;DHT22;9163;48.818;8.976;2023-02-27T10:38:38;12.30;1.00
15937;DHT22;9163;48.818;8.976;2023-02-27T10:41:11;12.40;1.00
15937;DHT22;9163;48.818;8.976;2023-02-27T10:43:39;12.70;1.00
15937;DHT22;9163;48.818;8.976;2023-02-27T10:46:12;13.40;1.00
15937;DHT22;9163;48.818;8.976;2023-02-27T10:48:40;13.70;1.00
15937;DHT22;9163;48.818;8.976;2023-02-27T10:51:23;14.80;1.00
15937;DHT22;9163;48.818;8.976;2023-02-27T10:53:51;14.30;1.00
15937;DHT22;9163;48.818;8.976;2023-02-27T10:56:37;14.50;1.00
15937;DHT22;9163;48.818;8.976;2023-02-27T10:59:09;14.70;1.00
15937;DHT22;9163;48.818;8.976;2023-02-27T11:01:47;15.50;1.00
15937;DHT22;9163;48.818;8.976;2023-02-27T11:04:24;15.50;1.00
15937;DHT22;9163;48.818;8.976;2023-02-27T11:06:52;14.80;1.00
15937;DHT22;9163;48.818;8.976;2023-02-27T11:09:21;14.80;1.00
15937;DHT22;9163;48.818;8.976;2023-02-27T11:11:49;15.20;1.00
15937;DHT22;9163;48.818;8.976;2023-02-27T11:14:27;16.20;1.00
15937;DHT22;9163;48.818;8.976;2023-02-27T11:16:57;16.00;1.00
15937;DHT22;9163;48.818;8.976;2023-02-27T11:19:30;16.20;1.00
15937;DHT22;9163;48.818;8.976;2023-02-27T11:22:00;15.50;1.00
15937;DHT22;9163;48.818;8.976;2023-02-27T11:24:27;16.00;1.00
15937;DHT22;9163;48.818;8.976;2023-02-27T11:26:57;15.80;1.00
15937;DHT22;9163;48.818;8.976;2023-02-27T11:29:25;16.30;1.00
15937;DHT22;9163;48.818;8.976;2023-02-27T11:31:56;17.60;1.00
15937;DHT22;9163;48.818;8.976;2023-02-27T11:34:27;16.60;1.00
15937;DHT22;9163;48.818;8.976;2023-02-27T11:36:58;16.80;1.00
15937;DHT22;9163;48.818;8.976;2023-02-27T11:39:30;14.70;1.00
15937;DHT22;9163;48.818;8.976;2023-02-27T11:42:11;13.70;1.00
15937;DHT22;9163;48.818;8.976;2023-02-27T11:44:51;13.40;1.00
15937;DHT22;9163;48.818;8.976;2023-02-27T11:47:24;13.20;1.00
15937;DHT22;9163;48.818;8.976;2023-02-27T11:52:57;13.20;1.00
15937;DHT22;9163;48.818;8.976;2023-02-27T11:55:27;13.80;1.00
15937;DHT22;9163;48.818;8.976;2023-02-27T11:58:01;13.80;1.00
15937;DHT22;9163;48.818;8.976;2023-02-27T12:00:32;14.70;1.00
15937;DHT22;9163;48.818;8.976;2023-02-27T12:03:09;13.70;1.00
15937;DHT22;9163;48.818;8.976;2023-02-27T12:05:43;11.90;1.00
15937;DHT22;9163;48.818;8.976;2023-02-27T12:08:16;11.70;1.00
15937;DHT22;9163;48.818;8.976;2023-02-27T12:10:48;11.00;1.00
15937;DHT22;9163;48.818;8.976;2023-02-27T12:13:18;12.00;1.00
15937;DHT22;9163;48.818;8.976;2023-02-27T12:15:50;14.00;1.00
15937;DHT22;9163;48.818;8.976;2023-02-27T12:18:25;15.20;1.00
15937;DHT22;9163;48.818;8.976;2023-02-27T12:20:56;16.20;1.00
15937;DHT22;9163;48.818;8.976;2023-02-27T12:23:30;17.40;1.00
15937;DHT22;9163;48.818;8.976;2023-02-27T12:26:04;17.10;1.00
15937;DHT22;9163;48.818;8.976;2023-02-27T12:28:42;16.70;1.00
15937;DHT22;9163;48.818;8.976;2023-02-27T12:31:21;17.30;1.00
15937;DHT22;9163;48.818;8.976;2023-02-27T12:33:55;18.70;1.00
15937;DHT22;9163;48.818;8.976;2023-02-27T12:36:25;19.10;1.00
15937;DHT22;9163;48.818;8.976;2023-02-27T12:38:52;18.20;1.00
15937;DHT22;9163;48.818;8.976;2023-02-27T12:41:32;17.90;1.00
15937;DHT22;9163;48.818;8.976;2023-02-27T12:44:15;17.80;1.00
15937;DHT22;9163;48.818;8.976;2023-02-27T12:46:49;16.10;1.00
15937;DHT22;9163;48.818;8.976;2023-02-27T12:49:33;15.20;1.00
15937;DHT22;9163;48.818;8.976;2023-02-27T12:52:11;14.30;1.00
15937;DHT22;9163;48.818;8.976;2023-02-27T12:54:50;12.70;1.00
15937;DHT22;9163;48.818;8.976;2023-02-27T12:57:28;11.60;1.00
15937;DHT22;9163;48.818;8.976;2023-02-27T13:00:05;11.40;1.00
15937;DHT22;9163;48.818;8.976;2023-02-27T13:02:52;11.70;1.00
15937;DHT22;9163;48.818;8.976;2023-02-27T13:05:30;11.40;1.00
15937;DHT22;9163;48.818;8.976;2023-02-27T13:08:06;11.10;1.00
15937;DHT22;9163;48.818;8.976;2023-02-27T13:10:40;10.70;1.00
15937;DHT22;9163;48.818;8.976;2023-02-27T13:13:15;10.20;1.00
15937;DHT22;9163;48.818;8.976;2023-02-27T13:15:47;9.50;1.00
15937;DHT22;9163;48.818;8.976;2023-02-27T13:18:30;9.40;1.00
15937;DHT22;9163;48.818;8.976;2023-02-27T13:21:06;8.80;1.00
15937;DHT22;9163;48.818;8.976;2023-02-27T13:26:26;7.00;1.00
15937;DHT22;9163;48.818;8.976;2023-02-27T13:28:55;6.70;1.00
15937;DHT22;9163;48.818;8.976;2023-02-27T13:31:31;6.60;1.00
15937;DHT22;9163;48.818;8.976;2023-02-27T13:34:06;6.40;1.00
15937;DHT22;9163;48.818;8.976;2023-02-27T13:36:43;6.40;1.00
15937;DHT22;9163;48.818;8.976;2023-02-27T13:39:36;7.30;1.00
15937;DHT22;9163;48.818;8.976;2023-02-27T13:48:35;9.50;1.00
15937;DHT22;9163;48.818;8.976;2023-02-27T13:51:05;8.20;1.00
15937;DHT22;9163;48.818;8.976;2023-02-27T13:53:36;7.20;1.00
15937;DHT22;9163;48.818;8.976;2023-02-27T13:56:20;6.50;1.00
15937;DHT22;9163;48.818;8.976;2023-02-27T13:58:49;7.40;1.00
15937;DHT22;9163;48.818;8.976;2023-02-27T14:01:25;7.60;1.00
15937;DHT22;9163;48.818;8.976;2023-02-27T14:03:56;7.50;1.00
15937;DHT22;9163;48.818;8.976;2023-02-27T14:06:28;6.70;1.00
15937;DHT22;9163;48.818;8.976;2023-02-27T14:08:58;5.90;1.00
15937;DHT22;9163;48.818;8.976;2023-02-27T14:11:27;5.30;1.00
15937;DHT22;9163;48.818;8.976;2023-02-27T14:14:03;5.10;1.00
15937;DHT22;9163;48.818;8.976;2023-02-27T14:17:04;4.90;1.00
15937;DHT22;9163;48.818;8.976;2023-02-27T14:19:50;4.80;1.00
15937;DHT22;9163;48.818;8.976;2023-02-27T14:22:45;4.40;1.00
15937;DHT22;9163;48.818;8.976;2023-02-27T14:25:35;4.10;1.00
15937;DHT22;9163;48.818;8.976;2023-02-27T14:28:04;4.50;1.00
15937;DHT22;9163;48.818;8.976;2023-02-27T14:30:41;4.40;1.00
15937;DHT22;9163;48.818;8.976;2023-02-27T14:33:17;4.10;1.00
15937;DHT22;9163;48.818;8.976;2023-02-27T14:35:49;4.10;1.00
15937;DHT22;9163;48.818;8.976;2023-02-27T14:38:19;4.10;1.00
15937;DHT22;9163;48.818;8.976;2023-02-27T14:41:10;4.60;1.00
15937;DHT22;9163;48.818;8.976;2023-02-27T14:43:43;4.70;1.00
15937;DHT22;9163;48.818;8.976;2023-02-27T14:46:15;4.60;99.90
15937;DHT22;9163;48.818;8.976;2023-02-27T14:48:46;4.20;99.90
15937;DHT22;9163;48.818;8.976;2023-02-27T14:51:18;4.00;99.90
15937;DHT22;9163;48.818;8.976;2023-02-27T14:53:58;3.80;99.90
15937;DHT22;9163;48.818;8.976;2023-02-27T14:56:27;3.50;99.90
15937;DHT22;9163;48.818;8.976;2023-02-27T14:58:54;3.50;1.00
15937;DHT22;9163;48.818;8.976;2023-02-27T15:01:24;3.50;99.90
15937;DHT22;9163;48.818;8.976;2023-02-27T15:03:54;3.90;99.90
15937;DHT22;9163;48.818;8.976;2023-02-27T15:06:28;3.90;99.90
15937;DHT22;9163;48.818;8.976;2023-02-27T15:08:57;3.80;99.90
15937;DHT22;9163;48.818;8.976;2023-02-27T15:11:24;3.60;99.90
15937;DHT22;9163;48.818;8.976;2023-02-27T15:13:56;3.60;99.90
15937;DHT22;9163;48.818;8.976;2023-02-27T15:16:37;3.70;99.90
15937;DHT22;9163;48.818;8.976;2023-02-27T15:19:14;3.40;99.90
15937;DHT22;9163;48.818;8.976;2023-02-27T15:21:43;3.10;99.90
15937;DHT22;9163;48.818;8.976;2023-02-27T15:24:26;3.10;99.90
15937;DHT22;9163;48.818;8.976;2023-02-27T15:26:56;2.70;99.90
15937;DHT22;9163;48.818;8.976;2023-02-27T15:29:31;2.50;1.00
15937;DHT22;9163;48.818;8.976;2023-02-27T15:31:59;2.30;1.00
15937;DHT22;9163;48.818;8.976;2023-02-27T15:34:27;2.20;1.00
15937;DHT22;9163;48.818;8.976;2023-02-27T15:36:56;2.10;1.00
15937;DHT22;9163;48.818;8.976;2023-02-27T15:39:25;2.00;1.00
15937;DHT22;9163;48.818;8.976;2023-02-27T15:41:55;2.00;1.00
15937;DHT22;9163;48.818;8.976;2023-02-27T15:44:26;2.00;1.00
15937;DHT22;9163;48.818;8.976;2023-02-27T15:46:54;2.00;1.00
15937;DHT22;9163;48.818;8.976;2023-02-27T15:49:23;2.10;1.00
15937;DHT22;9163;48.818;8.976;2023-02-27T15:51:58;2.20;1.00
15937;DHT22;9163;48.818;8.976;2023-02-27T15:54:30;2.10;1.00
15937;DHT22;9163;48.818;8.976;2023-02-27T15:56:58;2.00;1.00
15937;DHT22;9163;48.818;8.976;2023-02-27T15:59:30;1.90;1.00
15937;DHT22;9163;48.818;8.976;2023-02-27T16:01:59;1.70;1.00
15937;DHT22;9163;48.818;8.976;2023-02-27T16:04:29;1.60;1.00
15937;DHT22;9163;48.818;8.976;2023-02-27T16:07:02;1.50;1.00
15937;DHT22;9163;48.818;8.976;2023-02-27T16:09:32;1.50;1.00
15937;DHT22;9163;48.818;8.976;2023-02-27T16:12:11;1.50;1.00
15937;DHT22;9163;48.818;8.976;2023-02-27T16:14:41;1.40;1.00
15937;DHT22;9163;48.818;8.976;2023-02-27T16:17:26;1.30;1.00
15937;DHT22;9163;48.818;8.976;2023-02-27T16:19:55;1.20;1.00
15937;DHT22;9163;48.818;8.976;2023-02-27T16:22:23;1.10;1.00
15937;DHT22;9163;48.818;8.976;2023-02-27T16:24:51;1.10;1.00
15937;DHT22;9163;48.818;8.976;2023-02-27T16:27:22;1.00;1.00
15937;DHT22;9163;48.818;8.976;2023-02-27T16:29:52;1.00;1.00
15937;DHT22;9163;48.818;8.976;2023-02-27T16:32:25;1.00;1.00
15937;DHT22;9163;48.818;8.976;2023-02-27T16:35:00;1.00;1.00
15937;DHT22;9163;48.818;8.976;2023-02-27T16:37:33;0.90;1.00
15937;DHT22;9163;48.818;8.976;2023-02-27T16:40:04;1.00;1.00
15937;DHT22;9163;48.818;8.976;2023-02-27T16:42:32;0.90;1.00
15937;DHT22;9163;48.818;8.976;2023-02-27T16:45:01;0.80;1.00
15937;DHT22;9163;48.818;8.976;2023-02-27T16:47:28;0.80;1.00